sensor_id;sensor_type;location;lat;lon;timestamp;P1;durP1;ratioP1;P2;durP2;ratioP2
50543;SDS011;41176;44.032;20.900;2022-09-24T00:01:58;0.60;;;0.40;;
50543;SDS011;41176;44.032;20.900;2022-09-24T00:04:25;1.77;;;1.15;;
50543;SDS011;41176;44.032;20.900;2022-09-24T00:06:51;3.30;;;1.23;;
50543;SDS011;41176;44.032;20.900;2022-09-24T00:09:19;0.82;;;0.60;;
50543;SDS011;41176;44.032;20.900;2022-09-24T00:11:46;0.35;;;0.30;;
50543;SDS011;41176;44.032;20.900;2022-09-24T00:14:13;2.25;;;0.98;;
50543;SDS011;41176;44.032;20.900;2022-09-24T00:16:41;2.25;;;0.82;;
50543;SDS011;41176;44.032;20.900;2022-09-24T00:19:09;0.50;;;0.30;;
50543;SDS011;41176;44.032;20.900;2022-09-24T00:21:36;1.77;;;0.55;;
50543;SDS011;41176;44.032;20.900;2022-09-24T00:24:05;2.15;;;1.35;;
50543;SDS011;41176;44.032;20.900;2022-09-24T00:26:32;1.20;;;0.85;;
50543;SDS011;41176;44.032;20.900;2022-09-24T00:29:18;1.08;;;0.50;;
50543;SDS011;41176;44.032;20.900;2022-09-24T00:31:45;1.60;;;0.88;;
50543;SDS011;41176;44.032;20.900;2022-09-24T00:34:12;1.08;;;0.80;;
50543;SDS011;41176;44.032;20.900;2022-09-24T00:36:38;1.27;;;0.68;;
50543;SDS011;41176;44.032;20.900;2022-09-24T00:39:04;1.80;;;1.52;;
50543;SDS011;41176;44.032;20.900;2022-09-24T00:41:31;1.75;;;1.02;;
50543;SDS011;41176;44.032;20.900;2022-09-24T00:43:59;0.68;;;0.40;;
50543;SDS011;41176;44.032;20.900;2022-09-24T00:46:46;1.33;;;0.93;;
50543;SDS011;41176;44.032;20.900;2022-09-24T00:49:17;0.98;;;0.65;;
50543;SDS011;41176;44.032;20.900;2022-09-24T00:51:44;1.38;;;0.90;;
50543;SDS011;41176;44.032;20.900;2022-09-24T00:54:17;1.02;;;0.90;;
50543;SDS011;41176;44.032;20.900;2022-09-24T00:56:46;2.58;;;1.25;;
50543;SDS011;41176;44.032;20.900;2022-09-24T00:59:14;3.13;;;1.70;;
50543;SDS011;41176;44.032;20.900;2022-09-24T01:01:42;1.52;;;1.02;;
50543;SDS011;41176;44.032;20.900;2022-09-24T01:04:10;3.47;;;1.13;;
50543;SDS011;41176;44.032;20.900;2022-09-24T01:06:37;0.57;;;0.40;;
50543;SDS011;41176;44.032;20.900;2022-09-24T01:09:03;2.38;;;0.75;;
50543;SDS011;41176;44.032;20.900;2022-09-24T01:22:02;1.58;;;0.80;;
50543;SDS011;41176;44.032;20.900;2022-09-24T01:24:40;1.85;;;1.20;;
50543;SDS011;41176;44.032;20.900;2022-09-24T01:27:31;1.90;;;1.38;;
50543;SDS011;41176;44.032;20.900;2022-09-24T01:30:20;0.88;;;0.77;;
50543;SDS011;41176;44.032;20.900;2022-09-24T01:32:53;1.58;;;0.90;;
50543;SDS011;41176;44.032;20.900;2022-09-24T01:35:22;0.88;;;0.68;;
50543;SDS011;41176;44.032;20.900;2022-09-24T01:37:58;2.30;;;1.15;;
50543;SDS011;41176;44.032;20.900;2022-09-24T01:40:27;1.33;;;0.90;;
50543;SDS011;41176;44.032;20.900;2022-09-24T01:42:56;1.30;;;0.60;;
50543;SDS011;41176;44.032;20.900;2022-09-24T01:45:24;2.15;;;1.08;;
50543;SDS011;41176;44.032;20.900;2022-09-24T01:47:56;1.50;;;0.93;;
50543;SDS011;41176;44.032;20.900;2022-09-24T01:50:25;2.22;;;0.68;;
50543;SDS011;41176;44.032;20.900;2022-09-24T01:52:56;3.80;;;1.83;;
50543;SDS011;41176;44.032;20.900;2022-09-24T01:55:45;2.95;;;1.92;;
50543;SDS011;41176;44.032;20.900;2022-09-24T01:58:16;1.23;;;0.93;;
50543;SDS011;41176;44.032;20.900;2022-09-24T02:00:46;1.15;;;0.85;;
50543;SDS011;41176;44.032;20.900;2022-09-24T02:03:18;0.90;;;0.75;;
50543;SDS011;41176;44.032;20.900;2022-09-24T02:05:54;2.20;;;1.23;;
50543;SDS011;41176;44.032;20.900;2022-09-24T02:08:36;2.08;;;1.08;;
50543;SDS011;41176;44.032;20.900;2022-09-24T02:11:10;1.75;;;1.27;;
50543;SDS011;41176;44.032;20.900;2022-09-24T02:16:32;1.08;;;0.55;;
50543;SDS011;41176;44.032;20.900;2022-09-24T02:21:29;1.33;;;0.65;;
50543;SDS011;41176;44.032;20.900;2022-09-24T02:24:00;2.08;;;1.20;;
50543;SDS011;41176;44.032;20.900;2022-09-24T02:26:38;3.20;;;1.05;;
50543;SDS011;41176;44.032;20.900;2022-09-24T02:29:03;1.73;;;1.00;;
50543;SDS011;41176;44.032;20.900;2022-09-24T02:31:30;1.88;;;1.38;;
50543;SDS011;41176;44.032;20.900;2022-09-24T02:34:00;3.63;;;1.15;;
50543;SDS011;41176;44.032;20.900;2022-09-24T02:37:03;1.77;;;1.10;;
50543;SDS011;41176;44.032;20.900;2022-09-24T02:39:33;2.33;;;1.10;;
50543;SDS011;41176;44.032;20.900;2022-09-24T02:42:00;3.05;;;1.40;;
50543;SDS011;41176;44.032;20.900;2022-09-24T02:44:33;1.02;;;0.88;;
50543;SDS011;41176;44.032;20.900;2022-09-24T02:47:03;1.27;;;0.90;;
50543;SDS011;41176;44.032;20.900;2022-09-24T02:49:30;2.88;;;1.23;;
50543;SDS011;41176;44.032;20.900;2022-09-24T02:51:56;2.03;;;1.00;;
50543;SDS011;41176;44.032;20.900;2022-09-24T02:54:22;3.22;;;1.40;;
50543;SDS011;41176;44.032;20.900;2022-09-24T02:56:49;3.97;;;1.85;;
50543;SDS011;41176;44.032;20.900;2022-09-24T02:59:15;2.00;;;1.05;;
50543;SDS011;41176;44.032;20.900;2022-09-24T03:01:41;2.50;;;1.20;;
50543;SDS011;41176;44.032;20.900;2022-09-24T03:04:07;1.98;;;1.15;;
50543;SDS011;41176;44.032;20.900;2022-09-24T03:06:33;2.83;;;1.15;;
50543;SDS011;41176;44.032;20.900;2022-09-24T03:08:59;2.78;;;1.00;;
50543;SDS011;41176;44.032;20.900;2022-09-24T03:11:27;3.80;;;0.93;;
50543;SDS011;41176;44.032;20.900;2022-09-24T03:13:53;1.48;;;1.05;;
50543;SDS011;41176;44.032;20.900;2022-09-24T03:16:18;1.35;;;0.70;;
50543;SDS011;41176;44.032;20.900;2022-09-24T03:18:47;2.00;;;1.20;;
50543;SDS011;41176;44.032;20.900;2022-09-24T03:21:14;2.90;;;0.70;;
50543;SDS011;41176;44.032;20.900;2022-09-24T03:23:42;1.70;;;0.50;;
50543;SDS011;41176;44.032;20.900;2022-09-24T03:26:08;3.15;;;1.27;;
50543;SDS011;41176;44.032;20.900;2022-09-24T03:28:35;1.77;;;0.98;;
50543;SDS011;41176;44.032;20.900;2022-09-24T03:31:01;1.25;;;0.82;;
50543;SDS011;41176;44.032;20.900;2022-09-24T03:33:34;1.65;;;0.70;;
50543;SDS011;41176;44.032;20.900;2022-09-24T03:38:31;1.38;;;1.05;;
50543;SDS011;41176;44.032;20.900;2022-09-24T03:40:57;0.80;;;0.47;;
50543;SDS011;41176;44.032;20.900;2022-09-24T03:43:24;2.17;;;0.93;;
50543;SDS011;41176;44.032;20.900;2022-09-24T03:45:51;2.20;;;1.15;;
50543;SDS011;41176;44.032;20.900;2022-09-24T03:48:18;2.22;;;0.90;;
50543;SDS011;41176;44.032;20.900;2022-09-24T03:50:45;1.80;;;0.68;;
50543;SDS011;41176;44.032;20.900;2022-09-24T03:53:11;2.85;;;1.08;;
50543;SDS011;41176;44.032;20.900;2022-09-24T03:55:41;1.58;;;1.00;;
50543;SDS011;41176;44.032;20.900;2022-09-24T03:58:08;1.88;;;0.80;;
50543;SDS011;41176;44.032;20.900;2022-09-24T04:00:35;1.25;;;0.85;;
50543;SDS011;41176;44.032;20.900;2022-09-24T04:03:00;4.47;;;0.65;;
50543;SDS011;41176;44.032;20.900;2022-09-24T04:05:26;1.08;;;0.60;;
50543;SDS011;41176;44.032;20.900;2022-09-24T04:07:54;2.20;;;0.75;;
50543;SDS011;41176;44.032;20.900;2022-09-24T04:10:21;2.55;;;1.33;;
50543;SDS011;41176;44.032;20.900;2022-09-24T04:12:49;0.93;;;0.88;;
50543;SDS011;41176;44.032;20.900;2022-09-24T04:15:15;1.17;;;0.75;;
50543;SDS011;41176;44.032;20.900;2022-09-24T04:17:42;1.58;;;0.75;;
50543;SDS011;41176;44.032;20.900;2022-09-24T04:20:14;0.50;;;0.30;;
50543;SDS011;41176;44.032;20.900;2022-09-24T04:22:40;1.40;;;1.08;;
50543;SDS011;41176;44.032;20.900;2022-09-24T04:25:06;0.75;;;0.63;;
50543;SDS011;41176;44.032;20.900;2022-09-24T04:27:32;0.77;;;0.52;;
50543;SDS011;41176;44.032;20.900;2022-09-24T04:30:00;0.73;;;0.65;;
50543;SDS011;41176;44.032;20.900;2022-09-24T04:32:25;0.77;;;0.57;;
50543;SDS011;41176;44.032;20.900;2022-09-24T04:34:51;0.70;;;0.50;;
50543;SDS011;41176;44.032;20.900;2022-09-24T04:37:17;0.45;;;0.43;;
50543;SDS011;41176;44.032;20.900;2022-09-24T04:39:42;0.82;;;0.60;;
50543;SDS011;41176;44.032;20.900;2022-09-24T04:42:08;1.42;;;0.73;;
50543;SDS011;41176;44.032;20.900;2022-09-24T04:44:34;1.15;;;0.90;;
50543;SDS011;41176;44.032;20.900;2022-09-24T04:46:59;1.50;;;1.00;;
50543;SDS011;41176;44.032;20.900;2022-09-24T04:49:26;1.63;;;0.38;;
50543;SDS011;41176;44.032;20.900;2022-09-24T04:51:53;1.45;;;1.17;;
50543;SDS011;41176;44.032;20.900;2022-09-24T04:54:22;1.95;;;0.80;;
50543;SDS011;41176;44.032;20.900;2022-09-24T04:56:48;1.20;;;0.98;;
50543;SDS011;41176;44.032;20.900;2022-09-24T04:59:14;0.93;;;0.63;;
50543;SDS011;41176;44.032;20.900;2022-09-24T05:01:40;0.60;;;0.40;;
50543;SDS011;41176;44.032;20.900;2022-09-24T05:04:05;1.90;;;0.95;;
50543;SDS011;41176;44.032;20.900;2022-09-24T05:06:31;1.48;;;0.82;;
50543;SDS011;41176;44.032;20.900;2022-09-24T05:08:57;2.67;;;1.23;;
50543;SDS011;41176;44.032;20.900;2022-09-24T05:11:23;0.70;;;0.57;;
50543;SDS011;41176;44.032;20.900;2022-09-24T05:13:48;3.65;;;2.22;;
50543;SDS011;41176;44.032;20.900;2022-09-24T05:16:14;2.55;;;1.58;;
50543;SDS011;41176;44.032;20.900;2022-09-24T05:18:40;2.05;;;1.33;;
50543;SDS011;41176;44.032;20.900;2022-09-24T05:21:06;2.85;;;1.45;;
50543;SDS011;41176;44.032;20.900;2022-09-24T05:23:31;2.25;;;1.02;;
50543;SDS011;41176;44.032;20.900;2022-09-24T05:25:57;1.80;;;0.80;;
50543;SDS011;41176;44.032;20.900;2022-09-24T05:28:41;3.10;;;1.55;;
50543;SDS011;41176;44.032;20.900;2022-09-24T05:31:07;2.45;;;1.67;;
50543;SDS011;41176;44.032;20.900;2022-09-24T05:33:34;1.27;;;0.63;;
50543;SDS011;41176;44.032;20.900;2022-09-24T05:36:00;1.85;;;0.90;;
50543;SDS011;41176;44.032;20.900;2022-09-24T05:38:26;0.88;;;0.60;;
50543;SDS011;41176;44.032;20.900;2022-09-24T05:40:53;1.40;;;0.70;;
50543;SDS011;41176;44.032;20.900;2022-09-24T05:43:19;0.80;;;0.52;;
50543;SDS011;41176;44.032;20.900;2022-09-24T05:45:46;3.00;;;1.83;;
50543;SDS011;41176;44.032;20.900;2022-09-24T05:48:14;2.30;;;1.00;;
50543;SDS011;41176;44.032;20.900;2022-09-24T05:50:40;1.52;;;1.08;;
50543;SDS011;41176;44.032;20.900;2022-09-24T05:53:06;1.30;;;1.00;;
50543;SDS011;41176;44.032;20.900;2022-09-24T05:55:33;2.08;;;1.00;;
50543;SDS011;41176;44.032;20.900;2022-09-24T05:58:03;1.98;;;1.08;;
50543;SDS011;41176;44.032;20.900;2022-09-24T06:00:34;1.25;;;0.63;;
50543;SDS011;41176;44.032;20.900;2022-09-24T06:03:01;1.02;;;0.70;;
50543;SDS011;41176;44.032;20.900;2022-09-24T06:05:28;2.13;;;1.13;;
50543;SDS011;41176;44.032;20.900;2022-09-24T06:07:54;8.35;;;0.98;;
50543;SDS011;41176;44.032;20.900;2022-09-24T06:10:20;1.02;;;0.77;;
50543;SDS011;41176;44.032;20.900;2022-09-24T06:12:45;4.20;;;1.63;;
50543;SDS011;41176;44.032;20.900;2022-09-24T06:15:11;3.20;;;1.40;;
50543;SDS011;41176;44.032;20.900;2022-09-24T06:17:38;1.17;;;0.88;;
50543;SDS011;41176;44.032;20.900;2022-09-24T06:20:03;1.08;;;0.57;;
50543;SDS011;41176;44.032;20.900;2022-09-24T06:22:29;2.40;;;0.93;;
50543;SDS011;41176;44.032;20.900;2022-09-24T06:24:55;1.88;;;1.20;;
50543;SDS011;41176;44.032;20.900;2022-09-24T06:27:21;3.65;;;1.10;;
50543;SDS011;41176;44.032;20.900;2022-09-24T06:29:47;1.42;;;0.77;;
50543;SDS011;41176;44.032;20.900;2022-09-24T06:32:13;1.75;;;0.93;;
50543;SDS011;41176;44.032;20.900;2022-09-24T06:34:38;2.83;;;0.88;;
50543;SDS011;41176;44.032;20.900;2022-09-24T06:37:05;3.53;;;1.15;;
50543;SDS011;41176;44.032;20.900;2022-09-24T06:39:30;1.55;;;1.13;;
50543;SDS011;41176;44.032;20.900;2022-09-24T06:41:56;2.58;;;1.50;;
50543;SDS011;41176;44.032;20.900;2022-09-24T06:44:22;1.88;;;1.10;;
50543;SDS011;41176;44.032;20.900;2022-09-24T06:46:48;1.17;;;0.68;;
50543;SDS011;41176;44.032;20.900;2022-09-24T06:49:13;3.50;;;1.35;;
50543;SDS011;41176;44.032;20.900;2022-09-24T06:51:39;2.38;;;1.13;;
50543;SDS011;41176;44.032;20.900;2022-09-24T06:54:05;0.75;;;0.60;;
50543;SDS011;41176;44.032;20.900;2022-09-24T06:56:31;1.63;;;0.82;;
50543;SDS011;41176;44.032;20.900;2022-09-24T06:58:56;0.80;;;0.63;;
50543;SDS011;41176;44.032;20.900;2022-09-24T07:01:22;1.42;;;0.75;;
50543;SDS011;41176;44.032;20.900;2022-09-24T07:03:48;2.30;;;1.33;;
50543;SDS011;41176;44.032;20.900;2022-09-24T07:06:13;1.38;;;0.85;;
50543;SDS011;41176;44.032;20.900;2022-09-24T07:08:39;0.90;;;0.60;;
50543;SDS011;41176;44.032;20.900;2022-09-24T07:11:05;2.53;;;1.10;;
50543;SDS011;41176;44.032;20.900;2022-09-24T07:13:31;2.13;;;1.20;;
50543;SDS011;41176;44.032;20.900;2022-09-24T07:15:57;1.77;;;0.85;;
50543;SDS011;41176;44.032;20.900;2022-09-24T07:18:25;2.20;;;1.00;;
50543;SDS011;41176;44.032;20.900;2022-09-24T07:20:54;3.65;;;0.93;;
50543;SDS011;41176;44.032;20.900;2022-09-24T07:23:21;2.13;;;1.23;;
50543;SDS011;41176;44.032;20.900;2022-09-24T07:25:47;2.20;;;1.13;;
50543;SDS011;41176;44.032;20.900;2022-09-24T07:28:14;2.53;;;1.20;;
50543;SDS011;41176;44.032;20.900;2022-09-24T07:30:40;1.95;;;0.85;;
50543;SDS011;41176;44.032;20.900;2022-09-24T07:33:07;1.58;;;0.70;;
50543;SDS011;41176;44.032;20.900;2022-09-24T07:35:32;3.25;;;1.40;;
50543;SDS011;41176;44.032;20.900;2022-09-24T07:38:02;3.10;;;1.40;;
50543;SDS011;41176;44.032;20.900;2022-09-24T07:40:29;2.70;;;1.30;;
50543;SDS011;41176;44.032;20.900;2022-09-24T07:42:56;2.72;;;1.10;;
50543;SDS011;41176;44.032;20.900;2022-09-24T07:45:23;2.72;;;1.08;;
50543;SDS011;41176;44.032;20.900;2022-09-24T07:48:01;2.28;;;1.30;;
50543;SDS011;41176;44.032;20.900;2022-09-24T07:50:29;2.33;;;0.88;;
50543;SDS011;41176;44.032;20.900;2022-09-24T07:53:02;2.08;;;1.00;;
50543;SDS011;41176;44.032;20.900;2022-09-24T07:55:28;3.25;;;1.00;;
50543;SDS011;41176;44.032;20.900;2022-09-24T07:57:54;2.58;;;1.27;;
50543;SDS011;41176;44.032;20.900;2022-09-24T08:00:22;2.72;;;1.38;;
50543;SDS011;41176;44.032;20.900;2022-09-24T08:02:48;2.88;;;0.95;;
50543;SDS011;41176;44.032;20.900;2022-09-24T08:05:17;1.92;;;0.85;;
50543;SDS011;41176;44.032;20.900;2022-09-24T08:07:53;2.75;;;1.10;;
50543;SDS011;41176;44.032;20.900;2022-09-24T08:10:21;2.58;;;1.00;;
50543;SDS011;41176;44.032;20.900;2022-09-24T08:12:47;2.35;;;0.95;;
50543;SDS011;41176;44.032;20.900;2022-09-24T08:15:13;2.05;;;0.82;;
50543;SDS011;41176;44.032;20.900;2022-09-24T08:17:39;2.03;;;0.90;;
50543;SDS011;41176;44.032;20.900;2022-09-24T08:20:06;1.55;;;0.70;;
50543;SDS011;41176;44.032;20.900;2022-09-24T08:22:32;2.65;;;1.30;;
50543;SDS011;41176;44.032;20.900;2022-09-24T08:24:58;2.20;;;1.08;;
50543;SDS011;41176;44.032;20.900;2022-09-24T08:27:24;1.95;;;0.80;;
50543;SDS011;41176;44.032;20.900;2022-09-24T08:29:50;1.23;;;0.50;;
50543;SDS011;41176;44.032;20.900;2022-09-24T08:32:16;0.95;;;0.47;;
50543;SDS011;41176;44.032;20.900;2022-09-24T08:34:42;1.42;;;0.60;;
50543;SDS011;41176;44.032;20.900;2022-09-24T08:37:11;1.52;;;0.70;;
50543;SDS011;41176;44.032;20.900;2022-09-24T08:39:37;2.17;;;1.20;;
50543;SDS011;41176;44.032;20.900;2022-09-24T08:44:49;1.98;;;0.80;;
50543;SDS011;41176;44.032;20.900;2022-09-24T08:47:40;1.42;;;0.77;;
50543;SDS011;41176;44.032;20.900;2022-09-24T08:50:18;1.70;;;0.63;;
50543;SDS011;41176;44.032;20.900;2022-09-24T08:55:26;4.72;;;4.00;;
50543;SDS011;41176;44.032;20.900;2022-09-24T08:58:27;4.85;;;1.73;;
50543;SDS011;41176;44.032;20.900;2022-09-24T09:03:43;1.42;;;0.73;;
50543;SDS011;41176;44.032;20.900;2022-09-24T09:09:06;1.17;;;0.60;;
50543;SDS011;41176;44.032;20.900;2022-09-24T09:11:50;2.55;;;0.77;;
50543;SDS011;41176;44.032;20.900;2022-09-24T09:14:33;1.27;;;0.60;;
50543;SDS011;41176;44.032;20.900;2022-09-24T09:17:53;1.60;;;0.70;;
50543;SDS011;41176;44.032;20.900;2022-09-24T09:20:32;1.50;;;0.80;;
50543;SDS011;41176;44.032;20.900;2022-09-24T09:23:27;1.52;;;0.80;;
50543;SDS011;41176;44.032;20.900;2022-09-24T09:25:58;1.48;;;0.60;;
50543;SDS011;41176;44.032;20.900;2022-09-24T09:28:25;1.60;;;0.70;;
50543;SDS011;41176;44.032;20.900;2022-09-24T09:39:03;1.60;;;0.60;;
50543;SDS011;41176;44.032;20.900;2022-09-24T09:41:49;2.20;;;1.23;;
50543;SDS011;41176;44.032;20.900;2022-09-24T09:44:26;1.67;;;0.57;;
50543;SDS011;41176;44.032;20.900;2022-09-24T09:49:49;1.42;;;0.65;;
50543;SDS011;41176;44.032;20.900;2022-09-24T09:52:22;2.38;;;0.90;;
50543;SDS011;41176;44.032;20.900;2022-09-24T09:54:52;2.25;;;0.60;;
50543;SDS011;41176;44.032;20.900;2022-09-24T09:57:22;1.52;;;0.80;;
50543;SDS011;41176;44.032;20.900;2022-09-24T09:59:49;1.52;;;0.70;;
50543;SDS011;41176;44.032;20.900;2022-09-24T10:02:26;1.20;;;0.55;;
50543;SDS011;41176;44.032;20.900;2022-09-24T10:04:58;1.73;;;0.65;;
50543;SDS011;41176;44.032;20.900;2022-09-24T10:07:26;2.53;;;0.60;;
50543;SDS011;41176;44.032;20.900;2022-09-24T10:10:16;2.03;;;0.60;;
50543;SDS011;41176;44.032;20.900;2022-09-24T10:12:43;0.95;;;0.45;;
50543;SDS011;41176;44.032;20.900;2022-09-24T10:17:38;3.45;;;1.73;;
50543;SDS011;41176;44.032;20.900;2022-09-24T10:20:22;2.75;;;1.15;;
50543;SDS011;41176;44.032;20.900;2022-09-24T10:22:52;0.85;;;0.40;;
50543;SDS011;41176;44.032;20.900;2022-09-24T10:25:26;1.38;;;0.50;;
50543;SDS011;41176;44.032;20.900;2022-09-24T10:27:58;2.33;;;0.82;;
50543;SDS011;41176;44.032;20.900;2022-09-24T10:31:02;0.82;;;0.50;;
50543;SDS011;41176;44.032;20.900;2022-09-24T10:33:39;1.27;;;0.68;;
50543;SDS011;41176;44.032;20.900;2022-09-24T10:38:47;2.10;;;0.57;;
50543;SDS011;41176;44.032;20.900;2022-09-24T10:41:27;1.13;;;0.47;;
50543;SDS011;41176;44.032;20.900;2022-09-24T10:43:54;1.13;;;0.50;;
50543;SDS011;41176;44.032;20.900;2022-09-24T10:47:05;1.00;;;0.40;;
50543;SDS011;41176;44.032;20.900;2022-09-24T11:01:21;0.65;;;0.38;;
50543;SDS011;41176;44.032;20.900;2022-09-24T11:12:12;1.30;;;0.60;;
50543;SDS011;41176;44.032;20.900;2022-09-24T11:14:52;1.50;;;0.63;;
50543;SDS011;41176;44.032;20.900;2022-09-24T11:17:31;4.28;;;1.10;;
50543;SDS011;41176;44.032;20.900;2022-09-24T11:33:51;1.83;;;0.60;;
50543;SDS011;41176;44.032;20.900;2022-09-24T11:39:53;1.00;;;0.35;;
50543;SDS011;41176;44.032;20.900;2022-09-24T11:56:00;0.30;;;0.15;;
50543;SDS011;41176;44.032;20.900;2022-09-24T11:58:40;1.02;;;0.50;;
50543;SDS011;41176;44.032;20.900;2022-09-24T12:01:11;1.40;;;0.40;;
50543;SDS011;41176;44.032;20.900;2022-09-24T12:03:42;1.15;;;0.30;;
50543;SDS011;41176;44.032;20.900;2022-09-24T12:06:21;0.70;;;0.30;;
50543;SDS011;41176;44.032;20.900;2022-09-24T12:09:11;1.15;;;0.45;;
50543;SDS011;41176;44.032;20.900;2022-09-24T12:20:13;1.05;;;0.35;;
50543;SDS011;41176;44.032;20.900;2022-09-24T12:22:47;1.10;;;0.50;;
50543;SDS011;41176;44.032;20.900;2022-09-24T12:25:22;1.00;;;0.43;;
50543;SDS011;41176;44.032;20.900;2022-09-24T12:27:48;0.93;;;0.30;;
50543;SDS011;41176;44.032;20.900;2022-09-24T12:39:02;1.67;;;0.75;;
50543;SDS011;41176;44.032;20.900;2022-09-24T12:41:42;0.90;;;0.40;;
50543;SDS011;41176;44.032;20.900;2022-09-24T12:46:50;1.92;;;0.65;;
50543;SDS011;41176;44.032;20.900;2022-09-24T12:49:28;1.52;;;0.55;;
50543;SDS011;41176;44.032;20.900;2022-09-24T12:51:59;1.25;;;0.50;;
50543;SDS011;41176;44.032;20.900;2022-09-24T12:54:39;1.83;;;0.57;;
50543;SDS011;41176;44.032;20.900;2022-09-24T12:57:08;1.73;;;0.60;;
50543;SDS011;41176;44.032;20.900;2022-09-24T13:00:03;2.05;;;0.80;;
50543;SDS011;41176;44.032;20.900;2022-09-24T13:02:41;1.25;;;0.50;;
50543;SDS011;41176;44.032;20.900;2022-09-24T13:05:14;1.52;;;0.57;;
50543;SDS011;41176;44.032;20.900;2022-09-24T13:07:42;1.77;;;0.80;;
50543;SDS011;41176;44.032;20.900;2022-09-24T13:13:25;1.23;;;0.50;;
50543;SDS011;41176;44.032;20.900;2022-09-24T13:15:59;2.75;;;0.60;;
50543;SDS011;41176;44.032;20.900;2022-09-24T13:18:30;0.98;;;0.40;;
50543;SDS011;41176;44.032;20.900;2022-09-24T13:21:07;1.25;;;0.50;;
50543;SDS011;41176;44.032;20.900;2022-09-24T13:23:44;0.80;;;0.40;;
50543;SDS011;41176;44.032;20.900;2022-09-24T13:26:24;1.48;;;0.50;;
50543;SDS011;41176;44.032;20.900;2022-09-24T13:28:52;1.55;;;0.60;;
50543;SDS011;41176;44.032;20.900;2022-09-24T13:34:21;1.15;;;0.70;;
50543;SDS011;41176;44.032;20.900;2022-09-24T13:37:10;1.27;;;0.60;;
50543;SDS011;41176;44.032;20.900;2022-09-24T13:39:41;1.67;;;0.63;;
50543;SDS011;41176;44.032;20.900;2022-09-24T13:42:32;1.58;;;0.60;;
50543;SDS011;41176;44.032;20.900;2022-09-24T13:45:04;1.38;;;0.55;;
50543;SDS011;41176;44.032;20.900;2022-09-24T13:47:49;1.35;;;0.60;;
50543;SDS011;41176;44.032;20.900;2022-09-24T13:50:35;1.08;;;0.57;;
50543;SDS011;41176;44.032;20.900;2022-09-24T13:53:05;1.38;;;0.40;;
50543;SDS011;41176;44.032;20.900;2022-09-24T13:55:52;1.45;;;0.60;;
50543;SDS011;41176;44.032;20.900;2022-09-24T13:58:28;2.15;;;0.50;;
50543;SDS011;41176;44.032;20.900;2022-09-24T14:01:00;1.25;;;0.50;;
50543;SDS011;41176;44.032;20.900;2022-09-24T14:03:29;1.10;;;0.50;;
50543;SDS011;41176;44.032;20.900;2022-09-24T14:05:57;0.73;;;0.30;;
50543;SDS011;41176;44.032;20.900;2022-09-24T14:08:23;0.82;;;0.30;;
50543;SDS011;41176;44.032;20.900;2022-09-24T14:10:51;1.65;;;0.45;;
50543;SDS011;41176;44.032;20.900;2022-09-24T14:13:28;1.90;;;0.70;;
50543;SDS011;41176;44.032;20.900;2022-09-24T14:15:58;1.55;;;0.40;;
50543;SDS011;41176;44.032;20.900;2022-09-24T14:18:26;1.45;;;0.60;;
50543;SDS011;41176;44.032;20.900;2022-09-24T14:23:42;1.30;;;0.68;;
50543;SDS011;41176;44.032;20.900;2022-09-24T14:28:51;0.95;;;0.35;;
50543;SDS011;41176;44.032;20.900;2022-09-24T14:31:18;1.92;;;0.50;;
50543;SDS011;41176;44.032;20.900;2022-09-24T14:33:44;1.85;;;0.85;;
50543;SDS011;41176;44.032;20.900;2022-09-24T14:36:11;0.90;;;0.45;;
50543;SDS011;41176;44.032;20.900;2022-09-24T14:38:55;1.45;;;0.60;;
50543;SDS011;41176;44.032;20.900;2022-09-24T14:41:27;1.50;;;0.60;;
50543;SDS011;41176;44.032;20.900;2022-09-24T14:44:02;1.27;;;0.65;;
50543;SDS011;41176;44.032;20.900;2022-09-24T14:46:38;1.25;;;0.45;;
50543;SDS011;41176;44.032;20.900;2022-09-24T14:49:21;1.35;;;0.57;;
50543;SDS011;41176;44.032;20.900;2022-09-24T14:56:53;1.63;;;0.70;;
50543;SDS011;41176;44.032;20.900;2022-09-24T14:59:26;1.38;;;0.70;;
50543;SDS011;41176;44.032;20.900;2022-09-24T15:02:02;1.80;;;0.77;;
50543;SDS011;41176;44.032;20.900;2022-09-24T15:04:48;2.47;;;0.98;;
50543;SDS011;41176;44.032;20.900;2022-09-24T15:07:26;1.60;;;0.60;;
50543;SDS011;41176;44.032;20.900;2022-09-24T15:09:57;1.63;;;0.82;;
50543;SDS011;41176;44.032;20.900;2022-09-24T15:14:59;1.92;;;0.65;;
50543;SDS011;41176;44.032;20.900;2022-09-24T15:17:30;1.88;;;0.70;;
50543;SDS011;41176;44.032;20.900;2022-09-24T15:19:57;1.90;;;1.02;;
50543;SDS011;41176;44.032;20.900;2022-09-24T15:22:24;2.53;;;0.90;;
50543;SDS011;41176;44.032;20.900;2022-09-24T15:24:51;2.92;;;1.00;;
50543;SDS011;41176;44.032;20.900;2022-09-24T15:29:47;1.30;;;0.60;;
50543;SDS011;41176;44.032;20.900;2022-09-24T15:32:14;5.22;;;1.77;;
50543;SDS011;41176;44.032;20.900;2022-09-24T15:34:42;2.03;;;0.70;;
50543;SDS011;41176;44.032;20.900;2022-09-24T15:37:10;2.00;;;0.90;;
50543;SDS011;41176;44.032;20.900;2022-09-24T15:39:37;2.17;;;1.38;;
50543;SDS011;41176;44.032;20.900;2022-09-24T15:42:03;2.90;;;1.58;;
50543;SDS011;41176;44.032;20.900;2022-09-24T15:44:29;3.70;;;1.23;;
50543;SDS011;41176;44.032;20.900;2022-09-24T15:46:54;3.92;;;1.85;;
50543;SDS011;41176;44.032;20.900;2022-09-24T15:49:21;2.33;;;1.00;;
50543;SDS011;41176;44.032;20.900;2022-09-24T15:51:58;3.90;;;1.40;;
50543;SDS011;41176;44.032;20.900;2022-09-24T15:54:29;1.85;;;0.90;;
50543;SDS011;41176;44.032;20.900;2022-09-24T15:56:55;3.28;;;1.67;;
50543;SDS011;41176;44.032;20.900;2022-09-24T15:59:21;3.55;;;1.15;;
50543;SDS011;41176;44.032;20.900;2022-09-24T16:01:50;3.55;;;1.70;;
50543;SDS011;41176;44.032;20.900;2022-09-24T16:04:18;3.10;;;1.33;;
50543;SDS011;41176;44.032;20.900;2022-09-24T16:06:45;2.10;;;1.20;;
50543;SDS011;41176;44.032;20.900;2022-09-24T16:09:10;3.28;;;1.50;;
50543;SDS011;41176;44.032;20.900;2022-09-24T16:11:36;6.18;;;2.75;;
50543;SDS011;41176;44.032;20.900;2022-09-24T16:14:02;6.35;;;3.03;;
50543;SDS011;41176;44.032;20.900;2022-09-24T16:16:29;13.40;;;5.22;;
50543;SDS011;41176;44.032;20.900;2022-09-24T16:18:55;18.02;;;5.72;;
50543;SDS011;41176;44.032;20.900;2022-09-24T16:21:21;17.90;;;6.72;;
50543;SDS011;41176;44.032;20.900;2022-09-24T16:23:51;21.77;;;6.40;;
50543;SDS011;41176;44.032;20.900;2022-09-24T16:26:18;11.80;;;5.28;;
50543;SDS011;41176;44.032;20.900;2022-09-24T16:28:44;14.25;;;4.93;;
50543;SDS011;41176;44.032;20.900;2022-09-24T16:31:11;3.78;;;2.00;;
50543;SDS011;41176;44.032;20.900;2022-09-24T16:33:37;7.20;;;2.50;;
50543;SDS011;41176;44.032;20.900;2022-09-24T16:36:07;5.45;;;2.47;;
50543;SDS011;41176;44.032;20.900;2022-09-24T16:38:33;5.22;;;2.33;;
50543;SDS011;41176;44.032;20.900;2022-09-24T16:41:00;10.18;;;2.50;;
50543;SDS011;41176;44.032;20.900;2022-09-24T16:43:27;3.97;;;1.92;;
50543;SDS011;41176;44.032;20.900;2022-09-24T16:45:52;8.48;;;3.33;;
50543;SDS011;41176;44.032;20.900;2022-09-24T16:48:23;11.40;;;4.03;;
50543;SDS011;41176;44.032;20.900;2022-09-24T16:50:49;13.70;;;5.95;;
50543;SDS011;41176;44.032;20.900;2022-09-24T16:53:14;6.90;;;3.42;;
50543;SDS011;41176;44.032;20.900;2022-09-24T16:55:40;8.20;;;3.28;;
50543;SDS011;41176;44.032;20.900;2022-09-24T16:58:06;8.02;;;3.80;;
50543;SDS011;41176;44.032;20.900;2022-09-24T17:00:32;5.72;;;3.67;;
50543;SDS011;41176;44.032;20.900;2022-09-24T17:02:58;6.80;;;3.65;;
50543;SDS011;41176;44.032;20.900;2022-09-24T17:05:23;5.47;;;2.92;;
50543;SDS011;41176;44.032;20.900;2022-09-24T17:07:49;7.40;;;3.13;;
50543;SDS011;41176;44.032;20.900;2022-09-24T17:10:15;6.22;;;2.72;;